Time,TemperatureF,DewpointF,PressureIn,WindDirection,WindDirectionDegrees,WindSpeedMPH,WindSpeedGustMPH,Humidity,HourlyPrecipIn,Conditions,Clouds,dailyrainin,SoftwareType,DateUTC
2013-01-29 00:21:00,46.0,29.0,30.18,North,10,2.0,-999.0,51,0.00,,,-99.99,,2013-01-29 08:21:00,
2013-01-29 00:31:00,46.0,29.0,30.18,North,10,2.0,-999.0,51,0.00,,,-99.99,,2013-01-29 08:31:00,
2013-01-29 00:41:00,46.0,29.0,30.18,North,10,2.0,-999.0,51,0.00,,,-99.99,,2013-01-29 08:41:00,
2013-01-29 00:52:00,46.0,29.0,30.18,North,10,2.0,-999.0,51,0.00,,,-99.99,,2013-01-29 08:52:00,
2013-01-29 01:21:00,46.0,29.0,30.18,North,0,0.0,-999.0,52,0.00,,,-99.99,,2013-01-29 09:21:00,
2013-01-29 01:31:00,46.0,29.0,30.18,North,0,0.0,-999.0,52,0.00,,,-99.99,,2013-01-29 09:31:00,
2013-01-29 01:42:00,46.0,29.0,30.18,North,0,0.0,-999.0,52,0.00,,,-99.99,,2013-01-29 09:42:00,
2013-01-29 01:51:00,46.0,29.0,30.18,North,0,0.0,-999.0,52,0.00,,,-99.99,,2013-01-29 09:51:00,
2013-01-29 02:21:00,44.0,30.0,30.19,North,0,0.0,-999.0,57,0.00,,,-99.99,,2013-01-29 10:21:00,
2013-01-29 02:32:00,44.0,30.0,30.19,North,0,0.0,-999.0,57,0.00,,,-99.99,,2013-01-29 10:32:00,
2013-01-29 02:41:00,44.0,30.0,30.19,North,0,0.0,-999.0,57,0.00,,,-99.99,,2013-01-29 10:41:00,
2013-01-29 02:51:00,44.0,30.0,30.19,North,0,0.0,-999.0,57,0.00,,,-99.99,,2013-01-29 10:51:00,
2013-01-29 03:21:00,44.0,29.0,30.18,East,100,1.0,-999.0,56,0.00,,,-99.99,,2013-01-29 11:21:00,
2013-01-29 03:32:00,44.0,29.0,30.18,East,100,1.0,-999.0,56,0.00,,,-99.99,,2013-01-29 11:32:00,
2013-01-29 03:42:00,44.0,29.0,30.18,East,100,1.0,-999.0,56,0.00,,,-99.99,,2013-01-29 11:42:00,
2013-01-29 03:52:00,44.0,29.0,30.18,East,100,1.0,-999.0,56,0.00,,,-99.99,,2013-01-29 11:52:00,
2013-01-29 04:22:00,44.0,32.0,30.19,East,100,2.0,-999.0,63,0.00,,,-99.99,,2013-01-29 12:22:00,
2013-01-29 04:32:00,44.0,32.0,30.19,East,100,2.0,-999.0,63,0.00,,,-99.99,,2013-01-29 12:32:00,
2013-01-29 04:42:00,44.0,32.0,30.19,East,100,2.0,-999.0,63,0.00,,,-99.99,,2013-01-29 12:42:00,
2013-01-29 04:52:00,44.0,32.0,30.19,East,100,2.0,-999.0,63,0.00,,,-99.99,,2013-01-29 12:52:00,
2013-01-29 05:22:00,45.0,37.0,30.18,North,0,0.0,-999.0,73,0.00,,,-99.99,,2013-01-29 13:22:00,
2013-01-29 05:32:00,45.0,37.0,30.18,North,0,0.0,-999.0,73,0.00,,,-99.99,,2013-01-29 13:32:00,
2013-01-29 05:42:00,45.0,37.0,30.18,North,0,0.0,-999.0,73,0.00,,,-99.99,,2013-01-29 13:42:00,
2013-01-29 05:52:00,45.0,37.0,30.18,North,0,0.0,-999.0,73,0.00,,,-99.99,,2013-01-29 13:52:00,
2013-01-29 06:21:00,43.0,35.0,30.20,East,100,1.0,-999.0,74,0.00,,,-99.99,,2013-01-29 14:21:00,
2013-01-29 06:32:00,43.0,35.0,30.20,East,100,1.0,-999.0,74,0.00,,,-99.99,,2013-01-29 14:32:00,
2013-01-29 06:43:00,43.0,35.0,30.20,East,100,1.0,-999.0,74,0.00,,,-99.99,,2013-01-29 14:43:00,
2013-01-29 06:52:00,43.0,35.0,30.20,East,100,1.0,-999.0,74,0.00,,,-99.99,,2013-01-29 14:52:00,
2013-01-29 07:22:00,44.0,37.0,30.21,East,100,2.0,-999.0,76,0.00,,,-99.99,,2013-01-29 15:22:00,
2013-01-29 07:33:00,44.0,37.0,30.21,East,100,2.0,-999.0,76,0.00,,,-99.99,,2013-01-29 15:33:00,
2013-01-29 07:42:00,44.0,37.0,30.21,East,100,2.0,-999.0,76,0.00,,,-99.99,,2013-01-29 15:42:00,
2013-01-29 07:52:00,44.0,37.0,30.21,East,100,2.0,-999.0,76,0.00,,,-99.99,,2013-01-29 15:52:00,
2013-01-29 08:22:00,46.0,37.0,30.23,South,180,3.0,-999.0,72,0.00,,,-99.99,,2013-01-29 16:22:00,
2013-01-29 08:32:00,46.0,37.0,30.23,South,180,3.0,-999.0,72,0.00,,,-99.99,,2013-01-29 16:32:00,
2013-01-29 08:42:00,46.0,37.0,30.23,South,180,3.0,-999.0,72,0.00,,,-99.99,,2013-01-29 16:42:00,
2013-01-29 08:52:00,46.0,37.0,30.23,South,180,3.0,-999.0,72,0.00,,,-99.99,,2013-01-29 16:52:00,
2013-01-29 09:21:00,50.0,39.0,30.23,East,100,2.0,-999.0,66,0.00,,,-99.99,,2013-01-29 17:21:00,
2013-01-29 09:32:00,50.0,39.0,30.23,East,100,2.0,-999.0,66,0.00,,,-99.99,,2013-01-29 17:32:00,
2013-01-29 09:42:00,50.0,39.0,30.23,East,100,2.0,-999.0,66,0.00,,,-99.99,,2013-01-29 17:42:00,
2013-01-29 09:52:00,50.0,39.0,30.23,East,100,2.0,-999.0,66,0.00,,,-99.99,,2013-01-29 17:52:00,
2013-01-29 10:22:00,52.0,40.0,30.23,South,180,2.0,-999.0,63,0.00,,,-99.99,,2013-01-29 18:22:00,
2013-01-29 10:33:00,52.0,40.0,30.23,South,180,2.0,-999.0,63,0.00,,,-99.99,,2013-01-29 18:33:00,
2013-01-29 10:42:00,52.0,40.0,30.23,South,180,2.0,-999.0,63,0.00,,,-99.99,,2013-01-29 18:42:00,
2013-01-29 10:51:00,52.0,40.0,30.23,South,180,2.0,-999.0,63,0.00,,,-99.99,,2013-01-29 18:51:00,
2013-01-29 11:22:00,52.0,39.0,30.24,WSW,250,2.0,-999.0,62,0.00,,,-99.99,,2013-01-29 19:22:00,
2013-01-29 11:32:00,52.0,39.0,30.24,WSW,250,2.0,-999.0,62,0.00,,,-99.99,,2013-01-29 19:32:00,
2013-01-29 11:42:00,52.0,39.0,30.24,WSW,250,2.0,-999.0,62,0.00,,,-99.99,,2013-01-29 19:42:00,
2013-01-29 11:52:00,52.0,39.0,30.24,WSW,250,2.0,-999.0,62,0.00,,,-99.99,,2013-01-29 19:52:00,
2013-01-29 12:22:00,52.0,40.0,30.20,West,280,5.0,-999.0,63,0.00,,,-99.99,,2013-01-29 20:22:00,
2013-01-29 12:33:00,52.0,40.0,30.20,West,280,5.0,-999.0,63,0.00,,,-99.99,,2013-01-29 20:33:00,
2013-01-29 12:42:00,52.0,40.0,30.20,West,280,5.0,-999.0,63,0.00,,,-99.99,,2013-01-29 20:42:00,
2013-01-29 12:53:00,52.0,40.0,30.20,West,280,5.0,-999.0,63,0.00,,,-99.99,,2013-01-29 20:53:00,
2013-01-29 13:22:00,55.0,42.0,30.18,WNW,290,5.0,-999.0,61,0.00,,,-99.99,,2013-01-29 21:22:00,
2013-01-29 13:33:00,55.0,42.0,30.18,WNW,290,5.0,-999.0,61,0.00,,,-99.99,,2013-01-29 21:33:00,
2013-01-29 13:42:00,55.0,42.0,30.18,WNW,290,5.0,-999.0,61,0.00,,,-99.99,,2013-01-29 21:42:00,
2013-01-29 13:52:00,55.0,42.0,30.18,WNW,290,5.0,-999.0,61,0.00,,,-99.99,,2013-01-29 21:52:00,
2013-01-29 14:22:00,55.0,43.0,30.16,West,260,6.0,-999.0,64,0.00,,,-99.99,,2013-01-29 22:22:00,
2013-01-29 14:33:00,55.0,43.0,30.16,West,260,6.0,-999.0,64,0.00,,,-99.99,,2013-01-29 22:33:00,
2013-01-29 14:42:00,55.0,43.0,30.16,West,260,6.0,-999.0,64,0.00,,,-99.99,,2013-01-29 22:42:00,
2013-01-29 14:52:00,55.0,43.0,30.16,West,260,6.0,-999.0,64,0.00,,,-99.99,,2013-01-29 22:52:00,
2013-01-29 15:22:00,53.0,41.0,30.16,West,260,7.0,-999.0,64,0.00,,,-99.99,,2013-01-29 23:22:00,
2013-01-29 15:32:00,53.0,41.0,30.16,West,260,7.0,-999.0,64,0.00,,,-99.99,,2013-01-29 23:32:00,
2013-01-29 15:42:00,53.0,41.0,30.16,West,260,7.0,-999.0,64,0.00,,,-99.99,,2013-01-29 23:42:00,
2013-01-29 15:52:00,53.0,41.0,30.16,West,260,7.0,-999.0,64,0.00,,,-99.99,,2013-01-29 23:52:00,
2013-01-29 16:22:00,54.0,43.0,30.18,WNW,290,4.0,-999.0,65,0.00,,,-99.99,,2013-01-30 00:22:00,
2013-01-29 16:32:00,54.0,43.0,30.18,WNW,290,4.0,-999.0,65,0.00,,,-99.99,,2013-01-30 00:32:00,
2013-01-29 16:42:00,54.0,43.0,30.18,WNW,290,4.0,-999.0,65,0.00,,,-99.99,,2013-01-30 00:42:00,
2013-01-29 16:52:00,54.0,43.0,30.18,WNW,290,4.0,-999.0,65,0.00,,,-99.99,,2013-01-30 00:52:00,
2013-01-29 17:22:00,52.0,43.0,30.18,North,0,0.0,-999.0,72,0.00,,,-99.99,,2013-01-30 01:22:00,
2013-01-29 17:32:00,52.0,43.0,30.18,North,0,0.0,-999.0,72,0.00,,,-99.99,,2013-01-30 01:32:00,
2013-01-29 17:42:00,52.0,43.0,30.18,North,0,0.0,-999.0,72,0.00,,,-99.99,,2013-01-30 01:42:00,
2013-01-29 17:51:00,52.0,43.0,30.18,North,0,0.0,-999.0,72,0.00,,,-99.99,,2013-01-30 01:51:00,
2013-01-29 18:21:00,50.0,40.0,30.19,North,0,0.0,-999.0,68,0.00,,,-99.99,,2013-01-30 02:21:00,
2013-01-29 18:33:00,50.0,40.0,30.19,North,0,0.0,-999.0,68,0.00,,,-99.99,,2013-01-30 02:33:00,
2013-01-29 18:42:00,50.0,40.0,30.19,North,0,0.0,-999.0,68,0.00,,,-99.99,,2013-01-30 02:42:00,
2013-01-29 18:52:00,50.0,40.0,30.19,North,0,0.0,-999.0,68,0.00,,,-99.99,,2013-01-30 02:52:00,
2013-01-29 19:22:00,49.0,37.0,30.20,ESE,110,2.0,-999.0,62,0.00,,,-99.99,,2013-01-30 03:22:00,
2013-01-29 19:32:00,49.0,37.0,30.20,ESE,110,2.0,-999.0,62,0.00,,,-99.99,,2013-01-30 03:32:00,
2013-01-29 19:42:00,49.0,37.0,30.20,ESE,110,2.0,-999.0,62,0.00,,,-99.99,,2013-01-30 03:42:00,
2013-01-29 19:51:00,49.0,37.0,30.20,ESE,110,2.0,-999.0,62,0.00,,,-99.99,,2013-01-30 03:51:00,
2013-01-29 20:22:00,48.0,39.0,30.20,East,100,1.0,-999.0,70,0.00,,,-99.99,,2013-01-30 04:22:00,
2013-01-29 20:32:00,48.0,39.0,30.20,East,100,1.0,-999.0,70,0.00,,,-99.99,,2013-01-30 04:32:00,
2013-01-29 20:41:00,48.0,39.0,30.20,East,100,1.0,-999.0,70,0.00,,,-99.99,,2013-01-30 04:41:00,
2013-01-29 20:52:00,48.0,39.0,30.20,East,100,1.0,-999.0,70,0.00,,,-99.99,,2013-01-30 04:52:00,
2013-01-29 21:22:00,48.0,42.0,30.21,East,100,2.0,-999.0,79,0.00,,,-99.99,,2013-01-30 05:22:00,
2013-01-29 21:32:00,48.0,42.0,30.21,East,100,2.0,-999.0,79,0.00,,,-99.99,,2013-01-30 05:32:00,
2013-01-29 21:42:00,48.0,42.0,30.21,East,100,2.0,-999.0,79,0.00,,,-99.99,,2013-01-30 05:42:00,
2013-01-29 21:52:00,48.0,42.0,30.21,East,100,2.0,-999.0,79,0.00,,,-99.99,,2013-01-30 05:52:00,
2013-01-29 22:21:00,48.0,39.0,30.20,East,100,2.0,-999.0,72,0.00,,,-99.99,,2013-01-30 06:21:00,
2013-01-29 22:32:00,48.0,39.0,30.20,East,100,2.0,-999.0,72,0.00,,,-99.99,,2013-01-30 06:32:00,
2013-01-29 22:41:00,48.0,39.0,30.20,East,100,2.0,-999.0,72,0.00,,,-99.99,,2013-01-30 06:41:00,
2013-01-29 22:51:00,48.0,39.0,30.20,East,100,2.0,-999.0,72,0.00,,,-99.99,,2013-01-30 06:51:00,
2013-01-29 23:21:00,48.0,39.0,30.22,East,100,1.0,-999.0,70,0.00,,,-99.99,,2013-01-30 07:21:00,
2013-01-29 23:31:00,48.0,39.0,30.22,East,100,1.0,-999.0,70,0.00,,,-99.99,,2013-01-30 07:31:00,
2013-01-29 23:41:00,48.0,39.0,30.22,East,100,1.0,-999.0,70,0.00,,,-99.99,,2013-01-30 07:41:00,
2013-01-29 23:52:00,48.0,39.0,30.22,East,100,1.0,-999.0,70,0.00,,,-99.99,,2013-01-30 07:52:00,